sensor_id;sensor_type;location;lat;lon;timestamp;P1;durP1;ratioP1;P2;durP2;ratioP2
7181;SDS011;3632;42.724;23.298;2023-08-17T00:01:57;7.33;;;5.80;;
7181;SDS011;3632;42.724;23.298;2023-08-17T00:04:24;8.60;;;6.00;;
7181;SDS011;3632;42.724;23.298;2023-08-17T00:06:50;9.87;;;6.40;;
7181;SDS011;3632;42.724;23.298;2023-08-17T00:09:17;11.53;;;6.20;;
7181;SDS011;3632;42.724;23.298;2023-08-17T00:11:44;8.20;;;5.83;;
7181;SDS011;3632;42.724;23.298;2023-08-17T00:14:10;10.30;;;5.70;;
7181;SDS011;3632;42.724;23.298;2023-08-17T00:16:39;11.53;;;6.50;;
7181;SDS011;3632;42.724;23.298;2023-08-17T00:19:06;10.87;;;6.13;;
7181;SDS011;3632;42.724;23.298;2023-08-17T00:21:33;7.67;;;5.60;;
7181;SDS011;3632;42.724;23.298;2023-08-17T00:24:00;7.67;;;5.60;;
7181;SDS011;3632;42.724;23.298;2023-08-17T00:26:27;7.30;;;4.97;;
7181;SDS011;3632;42.724;23.298;2023-08-17T00:28:54;6.80;;;5.30;;
7181;SDS011;3632;42.724;23.298;2023-08-17T00:31:21;10.17;;;5.17;;
7181;SDS011;3632;42.724;23.298;2023-08-17T00:33:49;10.60;;;5.03;;
7181;SDS011;3632;42.724;23.298;2023-08-17T00:36:16;7.80;;;4.70;;
7181;SDS011;3632;42.724;23.298;2023-08-17T00:38:42;6.17;;;5.17;;
7181;SDS011;3632;42.724;23.298;2023-08-17T00:41:09;8.03;;;4.93;;
7181;SDS011;3632;42.724;23.298;2023-08-17T00:43:36;5.77;;;4.60;;
7181;SDS011;3632;42.724;23.298;2023-08-17T00:46:02;7.73;;;5.40;;
7181;SDS011;3632;42.724;23.298;2023-08-17T00:48:29;8.03;;;4.83;;
7181;SDS011;3632;42.724;23.298;2023-08-17T00:50:58;7.33;;;5.30;;
7181;SDS011;3632;42.724;23.298;2023-08-17T00:53:25;7.93;;;5.17;;
7181;SDS011;3632;42.724;23.298;2023-08-17T00:55:54;7.70;;;4.93;;
7181;SDS011;3632;42.724;23.298;2023-08-17T00:58:21;9.10;;;5.00;;
7181;SDS011;3632;42.724;23.298;2023-08-17T01:00:47;7.13;;;4.80;;
7181;SDS011;3632;42.724;23.298;2023-08-17T01:03:14;8.70;;;5.00;;
7181;SDS011;3632;42.724;23.298;2023-08-17T01:05:42;7.37;;;4.97;;
7181;SDS011;3632;42.724;23.298;2023-08-17T01:08:11;7.20;;;5.07;;
7181;SDS011;3632;42.724;23.298;2023-08-17T01:10:41;6.70;;;5.00;;
7181;SDS011;3632;42.724;23.298;2023-08-17T01:13:18;8.37;;;5.03;;
7181;SDS011;3632;42.724;23.298;2023-08-17T01:15:51;7.27;;;5.30;;
7181;SDS011;3632;42.724;23.298;2023-08-17T01:18:23;7.30;;;4.77;;
7181;SDS011;3632;42.724;23.298;2023-08-17T01:20:55;7.13;;;4.93;;
7181;SDS011;3632;42.724;23.298;2023-08-17T01:23:24;9.33;;;5.27;;
7181;SDS011;3632;42.724;23.298;2023-08-17T01:25:51;7.30;;;5.13;;
7181;SDS011;3632;42.724;23.298;2023-08-17T01:28:18;5.57;;;4.93;;
7181;SDS011;3632;42.724;23.298;2023-08-17T01:30:46;8.77;;;5.00;;
7181;SDS011;3632;42.724;23.298;2023-08-17T01:33:24;5.90;;;4.70;;
7181;SDS011;3632;42.724;23.298;2023-08-17T01:35:58;7.83;;;5.30;;
7181;SDS011;3632;42.724;23.298;2023-08-17T01:38:32;8.47;;;5.30;;
7181;SDS011;3632;42.724;23.298;2023-08-17T01:41:02;9.03;;;5.60;;
7181;SDS011;3632;42.724;23.298;2023-08-17T01:43:30;8.47;;;4.97;;
7181;SDS011;3632;42.724;23.298;2023-08-17T01:45:58;10.23;;;5.17;;
7181;SDS011;3632;42.724;23.298;2023-08-17T01:48:25;7.27;;;4.80;;
7181;SDS011;3632;42.724;23.298;2023-08-17T01:50:52;6.40;;;4.70;;
7181;SDS011;3632;42.724;23.298;2023-08-17T01:53:18;8.27;;;4.63;;
7181;SDS011;3632;42.724;23.298;2023-08-17T01:55:46;8.07;;;4.97;;
7181;SDS011;3632;42.724;23.298;2023-08-17T01:58:13;7.00;;;4.63;;
7181;SDS011;3632;42.724;23.298;2023-08-17T02:00:40;6.17;;;4.97;;
7181;SDS011;3632;42.724;23.298;2023-08-17T02:03:07;6.87;;;4.80;;
7181;SDS011;3632;42.724;23.298;2023-08-17T02:05:33;7.17;;;5.00;;
7181;SDS011;3632;42.724;23.298;2023-08-17T02:08:00;9.00;;;5.23;;
7181;SDS011;3632;42.724;23.298;2023-08-17T02:10:27;8.43;;;4.60;;
7181;SDS011;3632;42.724;23.298;2023-08-17T02:12:55;8.13;;;4.93;;
7181;SDS011;3632;42.724;23.298;2023-08-17T02:15:22;7.20;;;4.53;;
7181;SDS011;3632;42.724;23.298;2023-08-17T02:17:49;6.27;;;4.90;;
7181;SDS011;3632;42.724;23.298;2023-08-17T02:20:15;5.83;;;4.60;;
7181;SDS011;3632;42.724;23.298;2023-08-17T02:22:42;9.10;;;4.67;;
7181;SDS011;3632;42.724;23.298;2023-08-17T02:25:09;8.27;;;4.80;;
7181;SDS011;3632;42.724;23.298;2023-08-17T02:27:35;5.53;;;4.90;;
7181;SDS011;3632;42.724;23.298;2023-08-17T02:30:04;7.30;;;4.90;;
7181;SDS011;3632;42.724;23.298;2023-08-17T02:32:31;8.53;;;4.70;;
7181;SDS011;3632;42.724;23.298;2023-08-17T02:34:58;6.97;;;4.93;;
7181;SDS011;3632;42.724;23.298;2023-08-17T02:37:25;6.87;;;5.07;;
7181;SDS011;3632;42.724;23.298;2023-08-17T02:39:51;9.50;;;4.93;;
7181;SDS011;3632;42.724;23.298;2023-08-17T02:42:18;14.67;;;10.97;;
7181;SDS011;3632;42.724;23.298;2023-08-17T02:44:45;9.20;;;5.93;;
7181;SDS011;3632;42.724;23.298;2023-08-17T02:47:13;7.17;;;5.17;;
7181;SDS011;3632;42.724;23.298;2023-08-17T02:49:40;8.93;;;4.83;;
7181;SDS011;3632;42.724;23.298;2023-08-17T02:52:06;8.03;;;5.17;;
7181;SDS011;3632;42.724;23.298;2023-08-17T02:54:33;7.67;;;5.30;;
7181;SDS011;3632;42.724;23.298;2023-08-17T02:57:00;8.57;;;5.00;;
7181;SDS011;3632;42.724;23.298;2023-08-17T02:59:26;8.77;;;5.60;;
7181;SDS011;3632;42.724;23.298;2023-08-17T03:01:53;6.83;;;4.87;;
7181;SDS011;3632;42.724;23.298;2023-08-17T03:04:22;5.73;;;4.50;;
7181;SDS011;3632;42.724;23.298;2023-08-17T03:06:49;7.47;;;4.90;;
7181;SDS011;3632;42.724;23.298;2023-08-17T03:09:16;9.00;;;5.07;;
7181;SDS011;3632;42.724;23.298;2023-08-17T03:11:42;6.60;;;4.60;;
7181;SDS011;3632;42.724;23.298;2023-08-17T03:14:09;11.40;;;5.27;;
7181;SDS011;3632;42.724;23.298;2023-08-17T03:16:36;6.60;;;4.77;;
7181;SDS011;3632;42.724;23.298;2023-08-17T03:19:05;7.83;;;5.07;;
7181;SDS011;3632;42.724;23.298;2023-08-17T03:21:37;8.80;;;4.60;;
7181;SDS011;3632;42.724;23.298;2023-08-17T03:24:04;9.17;;;5.47;;
7181;SDS011;3632;42.724;23.298;2023-08-17T03:26:32;6.03;;;5.13;;
7181;SDS011;3632;42.724;23.298;2023-08-17T03:28:58;9.27;;;4.83;;
7181;SDS011;3632;42.724;23.298;2023-08-17T03:31:25;5.80;;;5.00;;
7181;SDS011;3632;42.724;23.298;2023-08-17T03:33:52;7.70;;;4.97;;
7181;SDS011;3632;42.724;23.298;2023-08-17T03:36:20;10.00;;;5.37;;
7181;SDS011;3632;42.724;23.298;2023-08-17T03:38:48;6.43;;;4.90;;
7181;SDS011;3632;42.724;23.298;2023-08-17T03:41:15;8.13;;;5.43;;
7181;SDS011;3632;42.724;23.298;2023-08-17T03:43:41;7.67;;;4.50;;
7181;SDS011;3632;42.724;23.298;2023-08-17T03:46:08;9.40;;;5.00;;
7181;SDS011;3632;42.724;23.298;2023-08-17T03:48:35;8.30;;;5.07;;
7181;SDS011;3632;42.724;23.298;2023-08-17T03:51:02;8.83;;;4.67;;
7181;SDS011;3632;42.724;23.298;2023-08-17T03:53:29;9.30;;;5.37;;
7181;SDS011;3632;42.724;23.298;2023-08-17T03:55:57;11.13;;;5.23;;
7181;SDS011;3632;42.724;23.298;2023-08-17T03:58:24;7.87;;;4.63;;
7181;SDS011;3632;42.724;23.298;2023-08-17T04:00:52;9.30;;;4.57;;
7181;SDS011;3632;42.724;23.298;2023-08-17T04:03:19;7.80;;;5.17;;
7181;SDS011;3632;42.724;23.298;2023-08-17T04:05:46;7.63;;;4.50;;
7181;SDS011;3632;42.724;23.298;2023-08-17T04:08:13;5.60;;;4.40;;
7181;SDS011;3632;42.724;23.298;2023-08-17T04:10:39;9.23;;;5.00;;
7181;SDS011;3632;42.724;23.298;2023-08-17T04:13:07;5.83;;;4.20;;
7181;SDS011;3632;42.724;23.298;2023-08-17T04:15:34;7.30;;;4.83;;
7181;SDS011;3632;42.724;23.298;2023-08-17T04:18:01;10.33;;;6.50;;
7181;SDS011;3632;42.724;23.298;2023-08-17T04:20:28;7.43;;;4.63;;
7181;SDS011;3632;42.724;23.298;2023-08-17T04:22:55;10.47;;;5.03;;
7181;SDS011;3632;42.724;23.298;2023-08-17T04:25:21;9.17;;;5.07;;
7181;SDS011;3632;42.724;23.298;2023-08-17T04:27:48;6.60;;;4.50;;
7181;SDS011;3632;42.724;23.298;2023-08-17T04:30:16;5.93;;;4.80;;
7181;SDS011;3632;42.724;23.298;2023-08-17T04:32:43;6.10;;;4.57;;
7181;SDS011;3632;42.724;23.298;2023-08-17T04:35:15;6.80;;;4.30;;
7181;SDS011;3632;42.724;23.298;2023-08-17T04:37:42;8.83;;;5.27;;
7181;SDS011;3632;42.724;23.298;2023-08-17T04:40:09;9.07;;;4.90;;
7181;SDS011;3632;42.724;23.298;2023-08-17T04:42:36;8.27;;;4.30;;
7181;SDS011;3632;42.724;23.298;2023-08-17T04:45:03;9.53;;;4.60;;
7181;SDS011;3632;42.724;23.298;2023-08-17T04:47:31;8.30;;;5.20;;
7181;SDS011;3632;42.724;23.298;2023-08-17T04:49:58;10.17;;;6.33;;
7181;SDS011;3632;42.724;23.298;2023-08-17T04:52:25;9.10;;;5.10;;
7181;SDS011;3632;42.724;23.298;2023-08-17T04:54:51;10.07;;;5.23;;
7181;SDS011;3632;42.724;23.298;2023-08-17T04:57:18;7.77;;;6.70;;
7181;SDS011;3632;42.724;23.298;2023-08-17T04:59:45;7.37;;;4.90;;
7181;SDS011;3632;42.724;23.298;2023-08-17T05:02:11;9.10;;;4.50;;
7181;SDS011;3632;42.724;23.298;2023-08-17T05:04:40;10.00;;;4.87;;
7181;SDS011;3632;42.724;23.298;2023-08-17T05:07:07;8.70;;;4.87;;
7181;SDS011;3632;42.724;23.298;2023-08-17T05:09:33;9.67;;;5.03;;
7181;SDS011;3632;42.724;23.298;2023-08-17T05:12:00;9.87;;;4.70;;
7181;SDS011;3632;42.724;23.298;2023-08-17T05:14:27;13.40;;;5.10;;
7181;SDS011;3632;42.724;23.298;2023-08-17T05:16:54;10.40;;;4.90;;
7181;SDS011;3632;42.724;23.298;2023-08-17T05:19:21;8.73;;;4.90;;
7181;SDS011;3632;42.724;23.298;2023-08-17T05:21:49;11.87;;;4.80;;
7181;SDS011;3632;42.724;23.298;2023-08-17T05:24:16;7.53;;;4.33;;
7181;SDS011;3632;42.724;23.298;2023-08-17T05:26:43;8.97;;;4.13;;
7181;SDS011;3632;42.724;23.298;2023-08-17T05:29:10;8.07;;;4.37;;
7181;SDS011;3632;42.724;23.298;2023-08-17T05:31:36;12.43;;;4.87;;
7181;SDS011;3632;42.724;23.298;2023-08-17T05:34:03;10.23;;;4.77;;
7181;SDS011;3632;42.724;23.298;2023-08-17T05:36:30;10.43;;;5.27;;
7181;SDS011;3632;42.724;23.298;2023-08-17T05:38:58;11.57;;;5.30;;
7181;SDS011;3632;42.724;23.298;2023-08-17T05:41:25;12.37;;;5.37;;
7181;SDS011;3632;42.724;23.298;2023-08-17T05:43:51;15.27;;;5.87;;
7181;SDS011;3632;42.724;23.298;2023-08-17T05:46:18;10.40;;;5.80;;
7181;SDS011;3632;42.724;23.298;2023-08-17T05:48:45;12.50;;;6.20;;
7181;SDS011;3632;42.724;23.298;2023-08-17T05:51:11;10.53;;;6.10;;
7181;SDS011;3632;42.724;23.298;2023-08-17T05:53:38;19.77;;;7.13;;
7181;SDS011;3632;42.724;23.298;2023-08-17T05:56:06;9.67;;;5.73;;
7181;SDS011;3632;42.724;23.298;2023-08-17T05:58:33;11.37;;;6.10;;
7181;SDS011;3632;42.724;23.298;2023-08-17T06:01:05;10.07;;;5.53;;
7181;SDS011;3632;42.724;23.298;2023-08-17T06:03:33;11.57;;;5.87;;
7181;SDS011;3632;42.724;23.298;2023-08-17T06:06:01;7.97;;;5.10;;
7181;SDS011;3632;42.724;23.298;2023-08-17T06:08:27;9.50;;;5.17;;
7181;SDS011;3632;42.724;23.298;2023-08-17T06:10:54;8.70;;;5.27;;
7181;SDS011;3632;42.724;23.298;2023-08-17T06:13:23;10.13;;;5.47;;
7181;SDS011;3632;42.724;23.298;2023-08-17T06:15:50;7.87;;;5.37;;
7181;SDS011;3632;42.724;23.298;2023-08-17T06:18:16;7.00;;;5.90;;
7181;SDS011;3632;42.724;23.298;2023-08-17T06:20:43;9.83;;;6.13;;
7181;SDS011;3632;42.724;23.298;2023-08-17T06:23:11;10.60;;;6.83;;
7181;SDS011;3632;42.724;23.298;2023-08-17T06:25:38;6.90;;;6.20;;
7181;SDS011;3632;42.724;23.298;2023-08-17T06:28:05;9.60;;;7.33;;
7181;SDS011;3632;42.724;23.298;2023-08-17T06:30:33;12.37;;;8.67;;
7181;SDS011;3632;42.724;23.298;2023-08-17T06:33:00;9.90;;;8.43;;
7181;SDS011;3632;42.724;23.298;2023-08-17T06:35:27;13.33;;;8.90;;
7181;SDS011;3632;42.724;23.298;2023-08-17T06:37:54;10.73;;;7.60;;
7181;SDS011;3632;42.724;23.298;2023-08-17T06:40:23;12.73;;;9.27;;
7181;SDS011;3632;42.724;23.298;2023-08-17T06:42:49;10.67;;;9.10;;
7181;SDS011;3632;42.724;23.298;2023-08-17T06:45:17;16.33;;;9.60;;
7181;SDS011;3632;42.724;23.298;2023-08-17T06:47:45;10.40;;;9.30;;
7181;SDS011;3632;42.724;23.298;2023-08-17T06:50:13;15.50;;;10.53;;
7181;SDS011;3632;42.724;23.298;2023-08-17T06:52:40;11.37;;;9.13;;
7181;SDS011;3632;42.724;23.298;2023-08-17T06:55:07;12.87;;;8.30;;
7181;SDS011;3632;42.724;23.298;2023-08-17T06:57:35;10.97;;;8.70;;
7181;SDS011;3632;42.724;23.298;2023-08-17T07:00:02;13.90;;;8.53;;
7181;SDS011;3632;42.724;23.298;2023-08-17T07:02:30;12.60;;;7.50;;
7181;SDS011;3632;42.724;23.298;2023-08-17T07:04:58;10.40;;;6.07;;
7181;SDS011;3632;42.724;23.298;2023-08-17T07:07:25;9.10;;;6.37;;
7181;SDS011;3632;42.724;23.298;2023-08-17T07:09:51;7.53;;;6.23;;
7181;SDS011;3632;42.724;23.298;2023-08-17T07:12:18;11.13;;;5.87;;
7181;SDS011;3632;42.724;23.298;2023-08-17T07:14:45;11.40;;;5.70;;
7181;SDS011;3632;42.724;23.298;2023-08-17T07:17:12;9.30;;;5.73;;
7181;SDS011;3632;42.724;23.298;2023-08-17T07:19:38;10.23;;;6.57;;
7181;SDS011;3632;42.724;23.298;2023-08-17T07:22:07;11.67;;;6.37;;
7181;SDS011;3632;42.724;23.298;2023-08-17T07:24:33;10.43;;;6.53;;
7181;SDS011;3632;42.724;23.298;2023-08-17T07:27:00;10.73;;;6.80;;
7181;SDS011;3632;42.724;23.298;2023-08-17T07:29:27;12.70;;;7.30;;
7181;SDS011;3632;42.724;23.298;2023-08-17T07:31:54;10.53;;;7.13;;
7181;SDS011;3632;42.724;23.298;2023-08-17T07:34:23;9.53;;;6.60;;
7181;SDS011;3632;42.724;23.298;2023-08-17T07:36:50;13.13;;;6.30;;
7181;SDS011;3632;42.724;23.298;2023-08-17T07:39:18;14.13;;;8.33;;
7181;SDS011;3632;42.724;23.298;2023-08-17T07:41:45;8.37;;;6.70;;
7181;SDS011;3632;42.724;23.298;2023-08-17T07:44:11;7.40;;;5.60;;
7181;SDS011;3632;42.724;23.298;2023-08-17T07:46:38;9.43;;;5.50;;
7181;SDS011;3632;42.724;23.298;2023-08-17T07:49:05;8.67;;;5.50;;
7181;SDS011;3632;42.724;23.298;2023-08-17T07:51:31;12.33;;;6.90;;
7181;SDS011;3632;42.724;23.298;2023-08-17T07:53:59;10.23;;;6.83;;
7181;SDS011;3632;42.724;23.298;2023-08-17T07:56:27;7.40;;;5.60;;
7181;SDS011;3632;42.724;23.298;2023-08-17T07:58:54;8.60;;;6.30;;
7181;SDS011;3632;42.724;23.298;2023-08-17T08:01:21;6.30;;;5.63;;
7181;SDS011;3632;42.724;23.298;2023-08-17T08:03:47;5.73;;;5.13;;
7181;SDS011;3632;42.724;23.298;2023-08-17T08:06:14;6.70;;;5.57;;
7181;SDS011;3632;42.724;23.298;2023-08-17T08:08:41;8.50;;;4.50;;
7181;SDS011;3632;42.724;23.298;2023-08-17T08:11:09;9.63;;;5.13;;
7181;SDS011;3632;42.724;23.298;2023-08-17T08:13:37;7.30;;;5.43;;
7181;SDS011;3632;42.724;23.298;2023-08-17T08:16:04;9.60;;;4.90;;
7181;SDS011;3632;42.724;23.298;2023-08-17T08:18:30;6.77;;;3.97;;
7181;SDS011;3632;42.724;23.298;2023-08-17T08:20:57;7.90;;;5.17;;
7181;SDS011;3632;42.724;23.298;2023-08-17T08:23:24;10.10;;;5.17;;
7181;SDS011;3632;42.724;23.298;2023-08-17T08:25:51;7.87;;;5.00;;
7181;SDS011;3632;42.724;23.298;2023-08-17T08:28:18;6.70;;;5.93;;
7181;SDS011;3632;42.724;23.298;2023-08-17T08:30:46;9.20;;;6.07;;
7181;SDS011;3632;42.724;23.298;2023-08-17T08:33:13;9.17;;;3.70;;
7181;SDS011;3632;42.724;23.298;2023-08-17T08:35:39;6.23;;;4.60;;
7181;SDS011;3632;42.724;23.298;2023-08-17T08:38:06;7.97;;;4.47;;
7181;SDS011;3632;42.724;23.298;2023-08-17T08:40:33;8.07;;;5.73;;
7181;SDS011;3632;42.724;23.298;2023-08-17T08:43:04;7.77;;;5.13;;
7181;SDS011;3632;42.724;23.298;2023-08-17T08:45:31;7.30;;;5.10;;
7181;SDS011;3632;42.724;23.298;2023-08-17T08:47:59;4.60;;;3.73;;
7181;SDS011;3632;42.724;23.298;2023-08-17T08:50:28;7.87;;;4.63;;
7181;SDS011;3632;42.724;23.298;2023-08-17T08:52:58;7.10;;;4.03;;
7181;SDS011;3632;42.724;23.298;2023-08-17T08:55:27;7.20;;;3.73;;
7181;SDS011;3632;42.724;23.298;2023-08-17T08:57:56;10.90;;;6.43;;
7181;SDS011;3632;42.724;23.298;2023-08-17T09:00:24;7.77;;;4.30;;
7181;SDS011;3632;42.724;23.298;2023-08-17T09:02:51;8.07;;;4.60;;
7181;SDS011;3632;42.724;23.298;2023-08-17T09:05:19;7.73;;;6.83;;
7181;SDS011;3632;42.724;23.298;2023-08-17T09:07:48;7.17;;;4.33;;
7181;SDS011;3632;42.724;23.298;2023-08-17T09:10:15;12.33;;;5.10;;
7181;SDS011;3632;42.724;23.298;2023-08-17T09:12:43;8.07;;;4.33;;
7181;SDS011;3632;42.724;23.298;2023-08-17T09:15:10;8.77;;;5.03;;
7181;SDS011;3632;42.724;23.298;2023-08-17T09:17:36;6.20;;;3.70;;
7181;SDS011;3632;42.724;23.298;2023-08-17T09:20:04;5.73;;;3.40;;
7181;SDS011;3632;42.724;23.298;2023-08-17T09:22:41;5.57;;;3.87;;
7181;SDS011;3632;42.724;23.298;2023-08-17T09:25:08;6.37;;;5.77;;
7181;SDS011;3632;42.724;23.298;2023-08-17T09:27:36;7.87;;;4.50;;
7181;SDS011;3632;42.724;23.298;2023-08-17T09:30:04;4.10;;;3.67;;
7181;SDS011;3632;42.724;23.298;2023-08-17T09:32:32;8.95;;;3.70;;
7181;SDS011;3632;42.724;23.298;2023-08-17T09:35:03;5.00;;;4.50;;
7181;SDS011;3632;42.724;23.298;2023-08-17T09:37:30;8.00;;;3.60;;
7181;SDS011;3632;42.724;23.298;2023-08-17T09:39:59;5.30;;;3.20;;
7181;SDS011;3632;42.724;23.298;2023-08-17T09:42:25;7.03;;;3.20;;
7181;SDS011;3632;42.724;23.298;2023-08-17T09:44:53;6.10;;;3.77;;
7181;SDS011;3632;42.724;23.298;2023-08-17T09:47:21;6.03;;;3.20;;
7181;SDS011;3632;42.724;23.298;2023-08-17T09:49:48;5.97;;;3.40;;
7181;SDS011;3632;42.724;23.298;2023-08-17T09:52:15;5.70;;;4.15;;
7181;SDS011;3632;42.724;23.298;2023-08-17T09:54:42;6.80;;;5.07;;
7181;SDS011;3632;42.724;23.298;2023-08-17T09:57:13;6.95;;;3.40;;
7181;SDS011;3632;42.724;23.298;2023-08-17T09:59:40;5.03;;;3.30;;
7181;SDS011;3632;42.724;23.298;2023-08-17T10:02:10;3.47;;;2.70;;
7181;SDS011;3632;42.724;23.298;2023-08-17T10:04:43;5.65;;;3.50;;
7181;SDS011;3632;42.724;23.298;2023-08-17T10:07:14;5.00;;;2.70;;
7181;SDS011;3632;42.724;23.298;2023-08-17T10:09:44;6.18;;;5.35;;
7181;SDS011;3632;42.724;23.298;2023-08-17T10:12:17;4.88;;;2.72;;
7181;SDS011;3632;42.724;23.298;2023-08-17T10:14:45;4.80;;;2.42;;
7181;SDS011;3632;42.724;23.298;2023-08-17T10:17:22;5.13;;;2.80;;
7181;SDS011;3632;42.724;23.298;2023-08-17T10:19:54;4.03;;;2.83;;
7181;SDS011;3632;42.724;23.298;2023-08-17T10:22:23;7.45;;;2.97;;
7181;SDS011;3632;42.724;23.298;2023-08-17T10:24:57;4.53;;;3.40;;
7181;SDS011;3632;42.724;23.298;2023-08-17T10:27:26;3.72;;;3.00;;
7181;SDS011;3632;42.724;23.298;2023-08-17T10:29:53;4.57;;;2.88;;
7181;SDS011;3632;42.724;23.298;2023-08-17T10:32:22;6.50;;;3.33;;
7181;SDS011;3632;42.724;23.298;2023-08-17T10:34:50;8.25;;;4.93;;
7181;SDS011;3632;42.724;23.298;2023-08-17T10:37:18;5.65;;;3.95;;
7181;SDS011;3632;42.724;23.298;2023-08-17T10:39:47;15.88;;;11.70;;
7181;SDS011;3632;42.724;23.298;2023-08-17T10:42:14;7.50;;;4.15;;
7181;SDS011;3632;42.724;23.298;2023-08-17T10:44:57;23.42;;;16.02;;
7181;SDS011;3632;42.724;23.298;2023-08-17T10:47:24;7.22;;;5.97;;
7181;SDS011;3632;42.724;23.298;2023-08-17T10:49:52;16.23;;;10.25;;
7181;SDS011;3632;42.724;23.298;2023-08-17T10:52:26;18.30;;;12.63;;
7181;SDS011;3632;42.724;23.298;2023-08-17T10:54:54;18.42;;;11.05;;
7181;SDS011;3632;42.724;23.298;2023-08-17T10:57:25;13.98;;;9.30;;
7181;SDS011;3632;42.724;23.298;2023-08-17T11:00:06;22.33;;;16.30;;
7181;SDS011;3632;42.724;23.298;2023-08-17T11:02:54;13.32;;;8.32;;
7181;SDS011;3632;42.724;23.298;2023-08-17T11:08:19;12.38;;;7.22;;
7181;SDS011;3632;42.724;23.298;2023-08-17T11:10:48;7.97;;;6.07;;
7181;SDS011;3632;42.724;23.298;2023-08-17T11:13:26;11.68;;;4.60;;
7181;SDS011;3632;42.724;23.298;2023-08-17T11:15:56;14.15;;;6.88;;
7181;SDS011;3632;42.724;23.298;2023-08-17T11:18:24;7.22;;;3.45;;
7181;SDS011;3632;42.724;23.298;2023-08-17T11:20:53;7.93;;;5.90;;
7181;SDS011;3632;42.724;23.298;2023-08-17T11:23:20;8.93;;;5.38;;
7181;SDS011;3632;42.724;23.298;2023-08-17T11:25:50;4.72;;;4.18;;
7181;SDS011;3632;42.724;23.298;2023-08-17T11:28:19;5.10;;;3.08;;
7181;SDS011;3632;42.724;23.298;2023-08-17T11:30:45;5.45;;;3.38;;
7181;SDS011;3632;42.724;23.298;2023-08-17T11:33:23;6.53;;;3.70;;
7181;SDS011;3632;42.724;23.298;2023-08-17T11:35:51;6.78;;;4.18;;
7181;SDS011;3632;42.724;23.298;2023-08-17T11:38:20;7.95;;;4.45;;
7181;SDS011;3632;42.724;23.298;2023-08-17T11:40:47;4.72;;;3.97;;
7181;SDS011;3632;42.724;23.298;2023-08-17T11:43:14;5.20;;;4.45;;
7181;SDS011;3632;42.724;23.298;2023-08-17T11:45:41;7.97;;;4.88;;
7181;SDS011;3632;42.724;23.298;2023-08-17T11:48:08;6.88;;;4.18;;
7181;SDS011;3632;42.724;23.298;2023-08-17T11:50:37;4.47;;;3.75;;
7181;SDS011;3632;42.724;23.298;2023-08-17T11:53:04;7.10;;;3.97;;
7181;SDS011;3632;42.724;23.298;2023-08-17T11:55:31;6.57;;;4.10;;
7181;SDS011;3632;42.724;23.298;2023-08-17T11:57:58;4.80;;;3.33;;
7181;SDS011;3632;42.724;23.298;2023-08-17T12:00:25;7.97;;;3.65;;
7181;SDS011;3632;42.724;23.298;2023-08-17T12:02:52;7.47;;;6.03;;
7181;SDS011;3632;42.724;23.298;2023-08-17T12:05:19;6.57;;;4.10;;
7181;SDS011;3632;42.724;23.298;2023-08-17T12:07:49;5.25;;;4.28;;
7181;SDS011;3632;42.724;23.298;2023-08-17T12:10:17;5.80;;;3.60;;
7181;SDS011;3632;42.724;23.298;2023-08-17T12:12:44;6.32;;;3.72;;
7181;SDS011;3632;42.724;23.298;2023-08-17T12:15:12;5.88;;;3.58;;
7181;SDS011;3632;42.724;23.298;2023-08-17T12:17:40;4.85;;;3.45;;
7181;SDS011;3632;42.724;23.298;2023-08-17T12:20:15;5.20;;;3.80;;
7181;SDS011;3632;42.724;23.298;2023-08-17T12:22:42;4.60;;;3.58;;
7181;SDS011;3632;42.724;23.298;2023-08-17T12:25:11;4.78;;;3.75;;
7181;SDS011;3632;42.724;23.298;2023-08-17T12:27:38;5.65;;;4.65;;
7181;SDS011;3632;42.724;23.298;2023-08-17T12:30:05;5.85;;;4.25;;
7181;SDS011;3632;42.724;23.298;2023-08-17T12:32:38;7.05;;;3.83;;
7181;SDS011;3632;42.724;23.298;2023-08-17T12:35:05;5.85;;;4.20;;
7181;SDS011;3632;42.724;23.298;2023-08-17T12:37:33;4.60;;;3.97;;
7181;SDS011;3632;42.724;23.298;2023-08-17T12:39:59;4.13;;;3.72;;
7181;SDS011;3632;42.724;23.298;2023-08-17T12:42:27;5.50;;;3.97;;
7181;SDS011;3632;42.724;23.298;2023-08-17T12:44:54;4.85;;;3.75;;
7181;SDS011;3632;42.724;23.298;2023-08-17T12:47:21;6.93;;;5.10;;
7181;SDS011;3632;42.724;23.298;2023-08-17T12:49:47;7.03;;;6.32;;
7181;SDS011;3632;42.724;23.298;2023-08-17T12:52:14;10.95;;;5.47;;
7181;SDS011;3632;42.724;23.298;2023-08-17T12:54:41;7.03;;;4.20;;
7181;SDS011;3632;42.724;23.298;2023-08-17T12:57:07;4.82;;;3.55;;
7181;SDS011;3632;42.724;23.298;2023-08-17T12:59:35;5.05;;;3.50;;
7181;SDS011;3632;42.724;23.298;2023-08-17T13:02:02;4.10;;;3.47;;
7181;SDS011;3632;42.724;23.298;2023-08-17T13:04:29;9.30;;;3.80;;
7181;SDS011;3632;42.724;23.298;2023-08-17T13:06:55;6.95;;;4.30;;
7181;SDS011;3632;42.724;23.298;2023-08-17T13:09:22;8.25;;;4.20;;
7181;SDS011;3632;42.724;23.298;2023-08-17T13:11:49;6.07;;;5.10;;
7181;SDS011;3632;42.724;23.298;2023-08-17T13:14:16;4.20;;;3.80;;
7181;SDS011;3632;42.724;23.298;2023-08-17T13:16:44;3.83;;;3.38;;
7181;SDS011;3632;42.724;23.298;2023-08-17T13:19:10;4.00;;;3.55;;
7181;SDS011;3632;42.724;23.298;2023-08-17T13:21:37;4.50;;;3.88;;
7181;SDS011;3632;42.724;23.298;2023-08-17T13:24:04;3.50;;;3.20;;
7181;SDS011;3632;42.724;23.298;2023-08-17T13:26:31;4.38;;;3.53;;
7181;SDS011;3632;42.724;23.298;2023-08-17T13:28:58;7.72;;;3.83;;
7181;SDS011;3632;42.724;23.298;2023-08-17T13:31:25;7.55;;;3.40;;
7181;SDS011;3632;42.724;23.298;2023-08-17T13:33:53;4.80;;;3.40;;
7181;SDS011;3632;42.724;23.298;2023-08-17T13:36:19;4.35;;;3.28;;
7181;SDS011;3632;42.724;23.298;2023-08-17T13:38:46;7.47;;;3.80;;
7181;SDS011;3632;42.724;23.298;2023-08-17T13:41:13;8.30;;;3.75;;
7181;SDS011;3632;42.724;23.298;2023-08-17T13:43:40;8.95;;;3.40;;
7181;SDS011;3632;42.724;23.298;2023-08-17T13:46:07;7.97;;;3.67;;
7181;SDS011;3632;42.724;23.298;2023-08-17T13:48:34;4.10;;;3.33;;
7181;SDS011;3632;42.724;23.298;2023-08-17T13:51:02;6.85;;;3.70;;
7181;SDS011;3632;42.724;23.298;2023-08-17T13:53:28;8.05;;;3.63;;
7181;SDS011;3632;42.724;23.298;2023-08-17T13:55:55;4.18;;;3.22;;
7181;SDS011;3632;42.724;23.298;2023-08-17T13:58:22;3.83;;;3.10;;
7181;SDS011;3632;42.724;23.298;2023-08-17T14:00:49;5.78;;;3.55;;
7181;SDS011;3632;42.724;23.298;2023-08-17T14:03:16;4.65;;;3.47;;
7181;SDS011;3632;42.724;23.298;2023-08-17T14:05:42;6.25;;;3.30;;
7181;SDS011;3632;42.724;23.298;2023-08-17T14:08:11;3.85;;;3.47;;
7181;SDS011;3632;42.724;23.298;2023-08-17T14:10:38;5.10;;;2.70;;
7181;SDS011;3632;42.724;23.298;2023-08-17T14:13:05;4.07;;;3.45;;
7181;SDS011;3632;42.724;23.298;2023-08-17T14:15:31;4.18;;;3.63;;
7181;SDS011;3632;42.724;23.298;2023-08-17T14:17:58;5.90;;;4.35;;
7181;SDS011;3632;42.724;23.298;2023-08-17T14:20:25;5.55;;;3.33;;
7181;SDS011;3632;42.724;23.298;2023-08-17T14:22:52;7.45;;;3.08;;
7181;SDS011;3632;42.724;23.298;2023-08-17T14:25:20;3.47;;;3.13;;
7181;SDS011;3632;42.724;23.298;2023-08-17T14:27:47;4.10;;;3.10;;
7181;SDS011;3632;42.724;23.298;2023-08-17T14:30:14;7.80;;;3.25;;
7181;SDS011;3632;42.724;23.298;2023-08-17T14:32:41;5.78;;;3.80;;
7181;SDS011;3632;42.724;23.298;2023-08-17T14:35:08;5.43;;;3.80;;
7181;SDS011;3632;42.724;23.298;2023-08-17T14:37:34;4.88;;;4.20;;
7181;SDS011;3632;42.724;23.298;2023-08-17T14:40:01;6.20;;;4.10;;
7181;SDS011;3632;42.724;23.298;2023-08-17T14:42:29;10.45;;;4.65;;
7181;SDS011;3632;42.724;23.298;2023-08-17T14:44:56;4.88;;;3.35;;
7181;SDS011;3632;42.724;23.298;2023-08-17T14:47:23;4.60;;;3.15;;
7181;SDS011;3632;42.724;23.298;2023-08-17T14:49:49;4.80;;;3.60;;
7181;SDS011;3632;42.724;23.298;2023-08-17T14:52:18;5.88;;;4.82;;
7181;SDS011;3632;42.724;23.298;2023-08-17T14:54:45;5.32;;;3.35;;
7181;SDS011;3632;42.724;23.298;2023-08-17T14:57:11;5.80;;;3.88;;
7181;SDS011;3632;42.724;23.298;2023-08-17T14:59:40;3.38;;;3.08;;
7181;SDS011;3632;42.724;23.298;2023-08-17T15:02:06;5.75;;;3.80;;
7181;SDS011;3632;42.724;23.298;2023-08-17T15:04:35;8.15;;;3.70;;